Sonnenkopf, Austria
Current Conditions -  °F | °C
As of 12:20 AM on Monday 24 Nov 2014 (Local Time) from LSZR Reporting Station
Moderate Fog Moderate Fog  
Wind Chill: 43°   Ceiling: 100
Heat Index: 43°   Visibility: 0.12mi
Dew Point: 43°   Wind: 2mph
Humidity: 100%   Direction: 110°ESE
Pressure: 30.18"   Gusts: NA
Location:  47.13°N, 10.06°E
Report Text: LSZR 232220Z AUTO 11002KT 0200 R10/0800N FG VV001 06/06 Q1022
Loading
Personal Weather Stations






























Interactive Weather Map New forecast layout! Learn more

10-Day Weather Forecast

Advertisements
Track Severe Weather on mobile